createdAt,value
2018-02-19T00:02:09.218Z,34.55
2018-02-19T00:04:36.949Z,33.13
2018-02-19T00:07:04.686Z,35.00
2018-02-19T00:09:32.410Z,34.28
2018-02-19T00:12:00.913Z,33.63
2018-02-19T00:14:28.626Z,35.65
2018-02-19T00:16:56.380Z,38.63
2018-02-19T00:19:24.132Z,30.67
2018-02-19T00:21:51.850Z,29.30
2018-02-19T00:24:19.579Z,31.83
2018-02-19T00:26:47.297Z,32.38
2018-02-19T00:29:15.010Z,28.48
2018-02-19T00:31:42.763Z,35.70
2018-02-19T00:34:10.486Z,26.45
2018-02-19T00:36:38.209Z,32.72
2018-02-19T00:39:05.954Z,29.80
2018-02-19T00:41:33.674Z,29.95
2018-02-19T00:44:01.402Z,31.70
2018-02-19T00:46:29.886Z,26.62
2018-02-19T00:48:58.378Z,29.00
2018-02-19T00:51:26.872Z,24.48
2018-02-19T00:53:54.599Z,31.37
2018-02-19T00:56:22.322Z,26.55
2018-02-19T00:58:50.046Z,29.73
2018-02-19T01:01:18.551Z,33.47
2018-02-19T01:03:46.265Z,30.45
2018-02-19T01:06:13.978Z,33.17
2018-02-19T01:08:41.698Z,27.95
2018-02-19T01:11:09.427Z,28.98
2018-02-19T01:13:37.151Z,30.95
2018-02-19T01:16:05.646Z,25.08
2018-02-19T01:18:33.362Z,28.98
2018-02-19T01:21:01.090Z,28.80
2018-02-19T01:23:28.802Z,25.10
2018-02-19T01:25:56.525Z,24.20
2018-02-19T01:28:24.247Z,32.15
2018-02-19T01:30:52.732Z,22.67
2018-02-19T01:33:21.214Z,27.20
2018-02-19T01:35:49.708Z,28.48
2018-02-19T01:38:17.440Z,26.17
2018-02-19T01:40:45.174Z,29.00
2018-02-19T01:43:12.941Z,25.90
2018-02-19T01:45:40.671Z,27.62
2018-02-19T01:48:08.397Z,25.50
2018-02-19T01:50:36.113Z,30.90
2018-02-19T01:53:03.830Z,24.48
2018-02-19T01:55:31.547Z,30.35
2018-02-19T01:57:59.273Z,32.28
2018-02-19T02:00:27.759Z,28.60
2018-02-19T02:02:56.246Z,26.92
2018-02-19T02:05:24.728Z,29.90
2018-02-19T02:07:53.209Z,34.70
2018-02-19T02:10:21.693Z,41.65
2018-02-19T02:12:50.179Z,32.53
2018-02-19T02:15:17.914Z,36.83
2018-02-19T02:17:45.637Z,39.13
2018-02-19T02:20:13.370Z,35.13
2018-02-19T02:22:41.095Z,30.08
2018-02-19T02:25:08.858Z,27.33
2018-02-19T02:27:36.568Z,27.83
2018-02-19T02:30:04.354Z,31.52
2018-02-19T02:32:32.062Z,29.83
2018-02-19T02:34:59.822Z,32.25
2018-02-19T02:37:27.533Z,28.17
2018-02-19T02:39:55.247Z,30.73
2018-02-19T02:42:22.958Z,38.97
2018-02-19T02:44:50.668Z,38.45
2018-02-19T02:47:18.375Z,33.70
2018-02-19T02:49:46.099Z,30.70
2018-02-19T02:52:13.815Z,33.17
2018-02-19T02:54:41.545Z,30.55
2018-02-19T02:57:09.254Z,35.38
2018-02-19T02:59:36.971Z,47.13
2018-02-19T03:02:05.467Z,42.80
2018-02-19T03:04:33.954Z,35.63
2018-02-19T03:07:02.450Z,36.20
2018-02-19T03:09:30.176Z,36.97
2018-02-19T03:11:57.886Z,40.65
2018-02-19T03:14:25.606Z,31.37
2018-02-19T03:16:53.364Z,37.45
2018-02-19T03:19:21.114Z,39.50
2018-02-19T03:21:48.822Z,43.25
2018-02-19T03:24:17.306Z,37.35
2018-02-19T03:26:45.022Z,37.00
2018-02-19T03:29:12.734Z,41.58
2018-02-19T03:31:40.446Z,38.42
2018-02-19T03:34:08.163Z,33.75
2018-02-19T03:36:35.879Z,36.38
2018-02-19T03:39:03.672Z,33.25
2018-02-19T03:41:32.151Z,31.48
2018-02-19T03:44:00.635Z,37.92
2018-02-19T03:46:29.105Z,34.65
2018-02-19T03:48:56.828Z,35.88
2018-02-19T03:51:24.544Z,40.47
2018-02-19T03:53:53.009Z,33.88
2018-02-19T03:56:20.720Z,42.38
2018-02-19T03:58:48.434Z,39.17
2018-02-19T04:01:16.153Z,46.90
2018-02-19T04:03:43.876Z,46.42
2018-02-19T04:06:12.360Z,39.63
2018-02-19T04:08:40.843Z,42.92
2018-02-19T04:11:09.326Z,38.65
2018-02-19T04:13:37.813Z,44.20
2018-02-19T04:16:06.293Z,41.20
2018-02-19T04:18:34.011Z,39.65
2018-02-19T04:21:01.722Z,49.30
2018-02-19T04:23:30.205Z,39.92
2018-02-19T04:25:58.686Z,49.03
2018-02-19T04:28:27.168Z,44.88
2018-02-19T04:30:55.658Z,41.85
2018-02-19T04:33:24.142Z,41.17
2018-02-19T04:35:52.642Z,40.53
2018-02-19T04:38:20.372Z,43.53
2018-02-19T04:40:48.864Z,43.15
2018-02-19T04:43:18.019Z,47.10
2018-02-19T04:46:03.392Z,42.00
2018-02-19T04:48:35.450Z,39.28
2018-02-19T04:51:03.174Z,45.28
2018-02-19T04:53:31.684Z,40.72
2018-02-19T04:55:59.415Z,37.83
2018-02-19T04:58:27.902Z,42.08
2018-02-19T05:00:56.399Z,40.00
2018-02-19T05:03:24.121Z,44.53
2018-02-19T05:05:51.851Z,40.65
2018-02-19T05:08:19.569Z,37.28
2018-02-19T05:10:48.058Z,37.10
2018-02-19T05:13:16.546Z,34.83
2018-02-19T05:15:44.274Z,36.08
2018-02-19T05:18:12.063Z,38.58
2018-02-19T05:20:40.550Z,36.92
2018-02-19T05:23:10.422Z,39.95
2018-02-19T05:25:38.934Z,41.42
2018-02-19T05:28:07.417Z,34.00
2018-02-19T05:30:35.895Z,41.95
2018-02-19T05:33:04.391Z,34.47
2018-02-19T05:35:32.867Z,43.35
2018-02-19T05:38:01.351Z,43.33
2018-02-19T05:40:29.822Z,44.78
2018-02-19T05:42:58.311Z,45.03
2018-02-19T05:45:26.794Z,44.35
2018-02-19T05:47:55.287Z,43.78
2018-02-19T05:50:23.004Z,41.85
2018-02-19T05:52:50.719Z,47.60
2018-02-19T05:55:18.437Z,37.33
2018-02-19T05:57:46.159Z,45.67
2018-02-19T06:00:13.910Z,40.15
2018-02-19T06:02:41.627Z,37.88
2018-02-19T06:05:09.347Z,38.90
2018-02-19T06:07:37.059Z,39.53
2018-02-19T06:10:04.765Z,48.00
2018-02-19T06:12:32.477Z,33.20
2018-02-19T06:15:00.207Z,50.80
2018-02-19T06:17:27.913Z,40.80
2018-02-19T06:19:55.632Z,38.25
2018-02-19T06:22:23.356Z,39.85
2018-02-19T06:24:51.068Z,41.20
2018-02-19T06:27:18.786Z,41.37
2018-02-19T06:29:46.503Z,41.28
2018-02-19T06:32:14.218Z,39.35
2018-02-19T06:34:42.702Z,36.72
2018-02-19T06:37:11.186Z,41.30
2018-02-19T06:39:39.665Z,46.00
2018-02-19T06:42:08.182Z,39.15
2018-02-19T06:44:35.897Z,42.35
2018-02-19T06:47:03.642Z,37.47
2018-02-19T06:49:31.386Z,36.78
2018-02-19T06:51:59.109Z,38.55
2018-02-19T06:54:27.597Z,42.00
2018-02-19T06:56:56.080Z,39.50
2018-02-19T06:59:24.567Z,42.03
2018-02-19T07:01:52.299Z,37.58
2018-02-19T07:04:20.020Z,43.50
2018-02-19T07:06:47.743Z,41.92
2018-02-19T07:09:16.226Z,44.63
2018-02-19T07:11:44.841Z,42.75
2018-02-19T07:14:12.553Z,39.13
2018-02-19T07:16:40.269Z,44.95
2018-02-19T07:19:07.982Z,37.58
2018-02-19T07:21:35.705Z,35.00
2018-02-19T07:24:03.428Z,40.75
2018-02-19T07:26:31.949Z,39.67
2018-02-19T07:28:59.679Z,43.53
2018-02-19T07:31:28.150Z,39.97
2018-02-19T07:33:56.646Z,32.50
2018-02-19T07:36:25.126Z,40.67
2018-02-19T07:38:53.603Z,38.50
2018-02-19T07:41:22.079Z,36.38
2018-02-19T07:43:50.566Z,39.75
2018-02-19T07:46:19.043Z,38.35
2018-02-19T07:48:47.528Z,39.53
2018-02-19T07:51:16.011Z,40.28
2018-02-19T07:53:44.482Z,36.33
2018-02-19T07:56:12.983Z,43.25
2018-02-19T07:58:40.709Z,37.15
2018-02-19T08:01:08.426Z,37.60
2018-02-19T08:03:36.150Z,41.83
2018-02-19T08:06:03.960Z,34.50
2018-02-19T08:08:31.701Z,41.80
2018-02-19T08:11:00.187Z,41.30
2018-02-19T08:13:27.899Z,41.55
2018-02-19T08:15:55.610Z,37.33
2018-02-19T08:18:24.105Z,39.75
2018-02-19T08:20:51.829Z,43.38
2018-02-19T08:23:19.550Z,44.40
2018-02-19T08:25:47.292Z,39.30
2018-02-19T08:28:15.066Z,39.72
2018-02-19T08:30:42.795Z,40.50
2018-02-19T08:33:10.507Z,38.03
2018-02-19T08:35:38.225Z,42.38
2018-02-19T08:38:06.696Z,36.88
2018-02-19T08:40:34.408Z,40.28
2018-02-19T08:43:02.122Z,35.80
2018-02-19T08:45:29.834Z,31.48
2018-02-19T08:47:57.631Z,33.35
2018-02-19T08:50:25.352Z,34.75
2018-02-19T08:52:53.066Z,35.97
2018-02-19T08:55:20.777Z,32.70
2018-02-19T08:57:48.494Z,32.28
2018-02-19T09:00:16.215Z,33.72
2018-02-19T09:02:43.943Z,32.67
2018-02-19T09:05:11.663Z,31.10
2018-02-19T09:07:39.372Z,34.33
2018-02-19T09:10:07.857Z,33.40
2018-02-19T09:12:36.371Z,31.30
2018-02-19T09:15:04.096Z,33.55
2018-02-19T09:17:31.809Z,35.42
2018-02-19T09:19:59.544Z,33.72
2018-02-19T09:22:28.031Z,32.20
2018-02-19T09:24:55.766Z,34.10
2018-02-19T09:27:23.482Z,27.25
2018-02-19T09:29:51.202Z,32.90
2018-02-19T09:32:19.693Z,27.10
2018-02-19T09:34:47.428Z,29.17
2018-02-19T09:37:15.154Z,33.90
2018-02-19T09:39:42.873Z,31.10
2018-02-19T09:42:10.594Z,34.47
2018-02-19T09:44:38.342Z,28.73
2018-02-19T09:47:06.066Z,27.20
2018-02-19T09:49:34.563Z,29.95
2018-02-19T09:52:03.126Z,28.58
2018-02-19T09:54:30.847Z,32.78
2018-02-19T09:56:58.574Z,29.17
2018-02-19T09:59:27.066Z,24.92
2018-02-19T10:01:54.815Z,21.55
2018-02-19T10:04:23.312Z,22.85
2018-02-19T10:06:51.048Z,29.05
2018-02-19T10:09:18.770Z,25.17
2018-02-19T10:11:46.495Z,28.48
2018-02-19T10:14:14.999Z,24.15
2018-02-19T10:16:42.729Z,25.77
2018-02-19T10:19:11.213Z,29.50
2018-02-19T10:21:39.712Z,27.17
2018-02-19T10:24:07.446Z,31.02
2018-02-19T10:26:35.177Z,32.30
2018-02-19T10:29:02.910Z,27.52
2018-02-19T10:31:30.634Z,33.10
2018-02-19T10:33:58.370Z,31.12
2018-02-19T10:36:26.099Z,34.55
2018-02-19T10:38:53.823Z,34.25
2018-02-19T10:41:21.542Z,29.25
2018-02-19T10:43:49.276Z,36.70
2018-02-19T10:46:17.786Z,33.70
2018-02-19T10:48:45.517Z,33.88
2018-02-19T10:51:14.003Z,32.53
2018-02-19T10:53:42.506Z,33.15
2018-02-19T10:56:10.289Z,30.80
2018-02-19T10:58:44.078Z,30.65
2018-02-19T11:01:11.814Z,31.80
2018-02-19T11:03:40.307Z,33.03
2018-02-19T11:06:08.822Z,31.02
2018-02-19T11:08:36.542Z,32.90
2018-02-19T11:11:05.038Z,29.52
2018-02-19T11:13:33.527Z,31.37
2018-02-19T11:16:01.246Z,28.45
2018-02-19T11:18:28.973Z,37.28
2018-02-19T11:20:56.699Z,29.33
2018-02-19T11:23:25.185Z,30.23
2018-02-19T11:25:53.674Z,32.08
2018-02-19T11:28:22.313Z,32.63
2018-02-19T11:30:50.035Z,36.90
2018-02-19T11:33:17.746Z,35.80
2018-02-19T11:35:45.486Z,29.85
2018-02-19T11:38:13.215Z,24.65
2018-02-19T11:40:41.698Z,28.60
2018-02-19T11:43:10.216Z,29.60
2018-02-19T11:45:37.938Z,28.17
2018-02-19T11:48:06.437Z,34.45
2018-02-19T11:50:34.164Z,24.95
2018-02-19T11:53:01.922Z,30.65
2018-02-19T11:55:29.650Z,31.00
2018-02-19T11:57:57.394Z,34.05
2018-02-19T12:00:25.132Z,29.83
2018-02-19T12:02:53.620Z,28.77
2018-02-19T12:05:22.110Z,27.87
2018-02-19T12:07:50.603Z,25.60
2018-02-19T12:10:18.328Z,26.60
2018-02-19T12:12:46.055Z,32.08
2018-02-19T12:15:13.813Z,27.50
2018-02-19T12:17:41.582Z,28.25
2018-02-19T12:20:09.318Z,30.95
2018-02-19T12:22:37.042Z,36.42
2018-02-19T12:25:04.775Z,32.35
2018-02-19T12:27:32.510Z,30.23
2018-02-19T12:30:00.239Z,27.80
2018-02-19T12:32:27.971Z,25.67
2018-02-19T12:34:55.698Z,27.75
2018-02-19T12:37:24.199Z,28.87
2018-02-19T12:39:51.966Z,28.58
2018-02-19T12:42:19.734Z,27.60
2018-02-19T12:44:47.458Z,31.62
2018-02-19T12:47:15.946Z,26.55
2018-02-19T12:49:44.427Z,32.65
2018-02-19T12:52:12.909Z,36.38
2018-02-19T12:54:41.389Z,34.20
2018-02-19T12:57:09.873Z,34.85
2018-02-19T12:59:38.353Z,33.70
2018-02-19T13:02:06.837Z,35.30
2018-02-19T13:04:35.325Z,30.65
2018-02-19T13:07:03.818Z,30.73
2018-02-19T13:09:31.570Z,27.37
2018-02-19T13:12:00.055Z,30.80
2018-02-19T13:14:28.558Z,28.83
2018-02-19T13:16:56.278Z,25.48
2018-02-19T13:19:23.993Z,31.40
2018-02-19T13:21:51.702Z,30.77
2018-02-19T13:24:19.417Z,24.73
2018-02-19T13:26:47.150Z,26.15
2018-02-19T13:29:15.634Z,28.25
2018-02-19T13:31:44.103Z,31.30
2018-02-19T13:34:12.590Z,31.23
2018-02-19T13:36:41.062Z,28.70
2018-02-19T13:39:08.814Z,30.83
2018-02-19T13:41:36.532Z,29.67
2018-02-19T13:44:04.287Z,31.90
2018-02-19T13:46:32.009Z,27.37
2018-02-19T13:48:59.726Z,28.85
2018-02-19T13:51:27.444Z,24.10
2018-02-19T13:53:55.154Z,27.48
2018-02-19T13:56:22.879Z,29.25
2018-02-19T13:58:51.355Z,31.85
2018-02-19T14:01:19.066Z,31.33
2018-02-19T14:03:46.783Z,26.05
2018-02-19T14:06:14.510Z,35.17
2018-02-19T14:08:42.214Z,29.70
2018-02-19T14:11:09.925Z,28.00
2018-02-19T14:13:37.639Z,29.87
2018-02-19T14:16:05.365Z,28.10
2018-02-19T14:18:33.078Z,33.35
2018-02-19T14:21:01.570Z,26.42
2018-02-19T14:23:29.288Z,29.98
2018-02-19T14:25:57.007Z,33.05
2018-02-19T14:28:24.728Z,32.05
2018-02-19T14:30:52.447Z,29.70
2018-02-19T14:33:20.157Z,31.65
2018-02-19T14:35:47.898Z,34.17
2018-02-19T14:38:15.627Z,33.85
2018-02-19T14:40:43.342Z,28.75
2018-02-19T14:43:11.058Z,31.90
2018-02-19T14:45:38.781Z,38.53
2018-02-19T14:48:06.489Z,33.42
2018-02-19T14:50:34.216Z,29.92
2018-02-19T14:53:01.930Z,32.42
2018-02-19T14:55:29.658Z,28.08
2018-02-19T14:57:58.133Z,30.92
2018-02-19T15:00:26.611Z,33.25
2018-02-19T15:02:55.094Z,29.40
2018-02-19T15:05:22.811Z,28.23
2018-02-19T15:07:50.543Z,30.10
2018-02-19T15:10:18.262Z,36.08
2018-02-19T15:12:45.986Z,30.77
2018-02-19T15:15:13.693Z,32.92
2018-02-19T15:17:41.409Z,29.92
2018-02-19T15:20:09.128Z,27.77
2018-02-19T15:22:36.847Z,30.12
2018-02-19T15:25:04.634Z,28.45
2018-02-19T15:27:32.339Z,32.13
2018-02-19T15:30:00.822Z,32.90
2018-02-19T15:32:29.292Z,33.38
2018-02-19T15:34:57.778Z,27.95
2018-02-19T15:37:26.253Z,34.33
2018-02-19T15:39:54.737Z,32.72
2018-02-19T15:42:22.457Z,30.08
2018-02-19T15:44:50.186Z,39.13
2018-02-19T15:47:17.902Z,28.62
2018-02-19T15:49:45.623Z,30.40
2018-02-19T15:52:13.340Z,31.35
2018-02-19T15:54:41.055Z,32.45
2018-02-19T15:57:08.765Z,35.22
2018-02-19T15:59:36.478Z,27.35
2018-02-19T16:02:04.249Z,37.88
2018-02-19T16:04:31.964Z,35.83
2018-02-19T16:06:59.674Z,33.70
2018-02-19T16:09:27.386Z,29.73
2018-02-19T16:11:55.102Z,32.80
2018-02-19T16:14:22.899Z,32.53
2018-02-19T16:16:50.767Z,33.50
2018-02-19T16:19:18.634Z,41.37
2018-02-19T16:21:46.500Z,38.28
2018-02-19T16:24:14.368Z,38.08
2018-02-19T16:26:42.237Z,36.30
2018-02-19T16:29:10.102Z,36.55
2018-02-19T16:31:37.969Z,37.25
2018-02-19T16:34:05.839Z,34.53
2018-02-19T16:36:33.704Z,36.55
2018-02-19T16:39:01.572Z,32.63
2018-02-19T16:41:29.438Z,31.15
2018-02-19T16:43:57.306Z,33.25
2018-02-19T16:46:25.172Z,33.97
2018-02-19T16:48:53.040Z,29.83
2018-02-19T16:51:20.907Z,35.90
2018-02-19T16:53:48.775Z,31.10
2018-02-19T16:56:16.642Z,32.47
2018-02-19T16:58:44.510Z,33.60
2018-02-19T17:01:12.377Z,31.92
2018-02-19T17:03:40.177Z,27.30
2018-02-19T17:06:08.828Z,32.08
2018-02-19T17:08:37.515Z,32.92
2018-02-19T17:11:05.381Z,34.72
2018-02-19T17:13:33.248Z,29.70
2018-02-19T17:16:01.116Z,28.85
2018-02-19T17:18:28.984Z,30.62
2018-02-19T17:20:56.852Z,29.12
2018-02-19T17:23:24.718Z,34.50
2018-02-19T17:25:52.586Z,29.70
2018-02-19T17:28:20.454Z,27.52
2018-02-19T17:30:48.320Z,29.25
2018-02-19T17:33:16.188Z,30.65
2018-02-19T17:35:58.904Z,29.60
2018-02-19T17:38:26.774Z,30.45
2018-02-19T17:40:54.672Z,30.42
2018-02-19T17:43:23.326Z,33.35
2018-02-19T17:45:51.192Z,32.15
2018-02-19T17:48:19.058Z,29.92
2018-02-19T17:50:46.926Z,25.83
2018-02-19T17:53:14.793Z,33.65
2018-02-19T17:55:42.662Z,31.23
2018-02-19T17:58:10.529Z,29.30
2018-02-19T18:00:38.397Z,33.47
2018-02-19T18:03:06.263Z,29.40
2018-02-19T18:05:34.133Z,32.00
2018-02-19T18:08:01.997Z,32.47
2018-02-19T18:10:29.864Z,33.13
2018-02-19T18:12:57.733Z,33.83
2018-02-19T18:15:25.602Z,28.58
2018-02-19T18:17:53.467Z,32.85
2018-02-19T18:20:21.335Z,31.05
2018-02-19T18:22:49.304Z,29.67
2018-02-19T18:25:17.172Z,34.45
2018-02-19T18:27:45.038Z,33.22
2018-02-19T18:30:12.905Z,31.55
2018-02-19T18:32:40.796Z,29.27
2018-02-19T18:35:08.640Z,29.15
2018-02-19T18:37:36.508Z,33.88
2018-02-19T18:40:04.376Z,27.27
2018-02-19T18:42:32.242Z,37.83
2018-02-19T18:45:00.110Z,35.05
2018-02-19T18:47:27.977Z,28.17
2018-02-19T18:49:55.844Z,29.00
2018-02-19T18:52:23.712Z,34.03
2018-02-19T18:54:51.579Z,32.67
2018-02-19T18:57:19.446Z,28.73
2018-02-19T18:59:47.313Z,39.45
2018-02-19T19:02:15.184Z,31.45
2018-02-19T19:04:43.048Z,34.25
2018-02-19T19:07:16.792Z,28.00
2018-02-19T19:09:57.445Z,33.88
2018-02-19T19:12:26.107Z,31.75
2018-02-19T19:14:53.973Z,25.95
2018-02-19T19:17:21.839Z,25.92
2018-02-19T19:19:49.708Z,33.53
2018-02-19T19:22:17.571Z,28.40
2018-02-19T19:24:45.442Z,32.58
2018-02-19T19:27:13.310Z,34.47
2018-02-19T19:29:41.177Z,29.00
2018-02-19T19:32:09.045Z,29.90
2018-02-19T19:34:36.911Z,30.50
2018-02-19T19:37:04.779Z,26.33
2018-02-19T19:39:32.648Z,36.90
2018-02-19T19:42:00.516Z,38.65
2018-02-19T19:44:28.383Z,31.42
2018-02-19T19:46:56.248Z,30.12
2018-02-19T19:49:24.119Z,34.42
2018-02-19T19:51:51.983Z,30.20
2018-02-19T19:54:19.849Z,29.80
2018-02-19T19:56:47.717Z,29.08
2018-02-19T19:59:15.589Z,34.03
2018-02-19T20:01:44.410Z,28.95
2018-02-19T20:04:13.060Z,27.73
2018-02-19T20:06:40.927Z,31.02
2018-02-19T20:09:11.949Z,30.92
2018-02-19T20:11:39.938Z,27.35
2018-02-19T20:14:07.807Z,29.40
2018-02-19T20:16:38.504Z,28.35
2018-02-19T20:19:10.707Z,27.92
2018-02-19T20:21:42.229Z,34.13
2018-02-19T20:24:13.265Z,27.52
2018-02-19T20:26:41.173Z,30.95
2018-02-19T20:29:09.039Z,37.42
2018-02-19T20:31:36.906Z,30.83
2018-02-19T20:34:04.773Z,31.30
2018-02-19T20:36:32.641Z,29.90
2018-02-19T20:39:00.508Z,28.17
2018-02-19T20:41:28.376Z,31.08
2018-02-19T20:43:56.244Z,28.45
2018-02-19T20:46:24.110Z,36.33
2018-02-19T20:48:52.800Z,32.40
2018-02-19T20:51:20.663Z,33.90
2018-02-19T20:53:48.531Z,36.03
2018-02-19T20:56:16.399Z,33.30
2018-02-19T20:58:44.265Z,35.83
2018-02-19T21:01:12.133Z,32.15
2018-02-19T21:03:40.000Z,33.67
2018-02-19T21:06:07.868Z,31.98
2018-02-19T21:08:35.735Z,29.90
2018-02-19T21:11:03.604Z,32.47
2018-02-19T21:13:31.471Z,33.97
2018-02-19T21:15:59.352Z,34.47
2018-02-19T21:18:28.024Z,29.17
2018-02-19T21:20:55.891Z,35.70
2018-02-19T21:23:23.762Z,29.23
2018-02-19T21:25:51.626Z,31.42
2018-02-19T21:28:20.865Z,33.20
2018-02-19T21:30:48.691Z,32.25
2018-02-19T21:33:16.559Z,40.17
2018-02-19T21:35:44.432Z,30.88
2018-02-19T21:38:12.294Z,31.80
2018-02-19T21:40:40.161Z,31.37
2018-02-19T21:43:08.029Z,34.95
2018-02-19T21:45:35.896Z,33.15
2018-02-19T21:48:03.762Z,33.90
2018-02-19T21:50:31.630Z,31.70
2018-02-19T21:52:59.499Z,29.23
2018-02-19T21:55:27.365Z,31.98
2018-02-19T21:57:55.232Z,31.00
2018-02-19T22:00:23.099Z,28.23
2018-02-19T22:02:50.966Z,34.72
2018-02-19T22:05:18.834Z,32.45
2018-02-19T22:07:46.814Z,31.67
2018-02-19T22:10:14.671Z,33.25
2018-02-19T22:12:42.539Z,26.05
2018-02-19T22:15:10.408Z,29.35
2018-02-19T22:17:38.273Z,30.73
2018-02-19T22:20:06.145Z,31.73
2018-02-19T22:22:34.008Z,31.48
2018-02-19T22:25:01.875Z,29.60
2018-02-19T22:27:29.742Z,32.15
2018-02-19T22:29:57.612Z,30.80
2018-02-19T22:32:25.478Z,24.30
2018-02-19T22:34:53.344Z,29.83
2018-02-19T22:37:21.211Z,29.17
2018-02-19T22:39:49.079Z,31.23
2018-02-19T22:42:16.946Z,31.60
2018-02-19T22:44:44.915Z,32.78
2018-02-19T22:47:12.783Z,34.60
2018-02-19T22:49:40.652Z,33.60
2018-02-19T22:52:08.560Z,32.88
2018-02-19T22:54:37.208Z,34.80
2018-02-19T22:57:05.073Z,30.75
2018-02-19T22:59:32.868Z,31.08
2018-02-19T23:02:01.523Z,29.40
2018-02-19T23:04:29.391Z,29.95
2018-02-19T23:06:57.258Z,37.25
2018-02-19T23:09:25.125Z,35.47
2018-02-19T23:11:52.992Z,30.37
2018-02-19T23:14:20.860Z,29.17
2018-02-19T23:16:48.727Z,34.53
2018-02-19T23:19:16.595Z,33.20
2018-02-19T23:21:44.461Z,37.10
2018-02-19T23:24:12.329Z,33.83
2018-02-19T23:26:40.133Z,37.28
2018-02-19T23:29:08.782Z,32.60
2018-02-19T23:31:36.648Z,32.47
2018-02-19T23:34:04.515Z,33.58
2018-02-19T23:36:32.383Z,32.95
2018-02-19T23:39:00.251Z,29.15
2018-02-19T23:41:28.117Z,34.22
2018-02-19T23:43:55.985Z,29.75
2018-02-19T23:46:23.854Z,33.08
2018-02-19T23:48:51.720Z,33.13
2018-02-19T23:51:19.587Z,34.28
2018-02-19T23:53:47.454Z,32.63
2018-02-19T23:56:15.321Z,33.80
2018-02-19T23:58:43.189Z,31.83
